sensor_id;sensor_type;location;lat;lon;timestamp;temperature;humidity
68719;DHT22;55696;52.138;5.444;2022-11-15T00:01:42;11.10;72.80
68719;DHT22;55696;52.138;5.444;2022-11-15T00:04:27;11.10;72.50
68719;DHT22;55696;52.138;5.444;2022-11-15T00:07:12;11.10;72.60
68719;DHT22;55696;52.138;5.444;2022-11-15T00:10:17;11.10;72.80
68719;DHT22;55696;52.138;5.444;2022-11-15T00:13:11;11.00;72.70
68719;DHT22;55696;52.138;5.444;2022-11-15T00:15:58;11.10;74.60
68719;DHT22;55696;52.138;5.444;2022-11-15T00:18:43;11.10;74.30
68719;DHT22;55696;52.138;5.444;2022-11-15T00:21:34;11.10;73.40
68719;DHT22;55696;52.138;5.444;2022-11-15T00:24:20;11.00;73.50
68719;DHT22;55696;52.138;5.444;2022-11-15T00:27:05;11.00;73.90
68719;DHT22;55696;52.138;5.444;2022-11-15T00:29:52;11.10;73.80
68719;DHT22;55696;52.138;5.444;2022-11-15T00:32:38;11.10;73.80
68719;DHT22;55696;52.138;5.444;2022-11-15T00:35:23;11.00;74.00
68719;DHT22;55696;52.138;5.444;2022-11-15T00:38:08;11.00;74.30
68719;DHT22;55696;52.138;5.444;2022-11-15T00:40:54;11.00;74.60
68719;DHT22;55696;52.138;5.444;2022-11-15T00:43:39;11.00;74.80
68719;DHT22;55696;52.138;5.444;2022-11-15T00:46:25;11.10;75.00
68719;DHT22;55696;52.138;5.444;2022-11-15T00:49:11;11.10;75.10
68719;DHT22;55696;52.138;5.444;2022-11-15T00:51:56;11.10;74.50
68719;DHT22;55696;52.138;5.444;2022-11-15T00:54:41;11.10;74.60
68719;DHT22;55696;52.138;5.444;2022-11-15T00:57:27;11.10;74.70
68719;DHT22;55696;52.138;5.444;2022-11-15T01:00:12;11.10;74.70
68719;DHT22;55696;52.138;5.444;2022-11-15T01:03:02;11.20;74.90
68719;DHT22;55696;52.138;5.444;2022-11-15T01:05:47;11.20;76.40
68719;DHT22;55696;52.138;5.444;2022-11-15T01:08:33;11.20;74.60
68719;DHT22;55696;52.138;5.444;2022-11-15T01:11:18;11.10;76.00
68719;DHT22;55696;52.138;5.444;2022-11-15T01:14:04;11.10;75.30
68719;DHT22;55696;52.138;5.444;2022-11-15T01:16:49;11.20;75.40
68719;DHT22;55696;52.138;5.444;2022-11-15T01:19:35;11.30;75.50
68719;DHT22;55696;52.138;5.444;2022-11-15T01:22:20;11.30;75.40
68719;DHT22;55696;52.138;5.444;2022-11-15T01:25:05;11.30;75.40
68719;DHT22;55696;52.138;5.444;2022-11-15T01:27:51;11.40;75.70
68719;DHT22;55696;52.138;5.444;2022-11-15T01:30:36;11.30;75.40
68719;DHT22;55696;52.138;5.444;2022-11-15T01:33:21;11.30;75.50
68719;DHT22;55696;52.138;5.444;2022-11-15T01:36:13;11.40;75.50
68719;DHT22;55696;52.138;5.444;2022-11-15T01:38:59;11.30;76.20
68719;DHT22;55696;52.138;5.444;2022-11-15T01:41:44;11.40;76.30
68719;DHT22;55696;52.138;5.444;2022-11-15T01:44:45;11.50;75.60
68719;DHT22;55696;52.138;5.444;2022-11-15T01:47:36;11.40;78.00
68719;DHT22;55696;52.138;5.444;2022-11-15T01:50:27;11.50;77.50
68719;DHT22;55696;52.138;5.444;2022-11-15T01:53:15;11.50;77.40
68719;DHT22;55696;52.138;5.444;2022-11-15T01:56:05;11.60;76.90
68719;DHT22;55696;52.138;5.444;2022-11-15T01:58:53;11.70;77.20
68719;DHT22;55696;52.138;5.444;2022-11-15T02:01:40;11.70;76.90
68719;DHT22;55696;52.138;5.444;2022-11-15T02:04:28;11.70;75.80
68719;DHT22;55696;52.138;5.444;2022-11-15T02:07:17;11.70;77.00
68719;DHT22;55696;52.138;5.444;2022-11-15T02:10:07;11.70;76.80
68719;DHT22;55696;52.138;5.444;2022-11-15T02:12:54;11.80;77.40
68719;DHT22;55696;52.138;5.444;2022-11-15T02:15:49;11.80;76.70
68719;DHT22;55696;52.138;5.444;2022-11-15T02:18:45;11.80;77.60
68719;DHT22;55696;52.138;5.444;2022-11-15T02:30:55;12.00;77.80
68719;DHT22;55696;52.138;5.444;2022-11-15T02:36:43;12.00;75.60
68719;DHT22;55696;52.138;5.444;2022-11-15T02:39:45;12.00;75.60
68719;DHT22;55696;52.138;5.444;2022-11-15T02:42:39;12.10;77.80
68719;DHT22;55696;52.138;5.444;2022-11-15T02:46:04;12.00;78.10
68719;DHT22;55696;52.138;5.444;2022-11-15T02:48:51;12.10;77.60
68719;DHT22;55696;52.138;5.444;2022-11-15T02:51:36;12.10;76.40
68719;DHT22;55696;52.138;5.444;2022-11-15T02:54:30;12.10;76.20
68719;DHT22;55696;52.138;5.444;2022-11-15T02:57:18;12.30;77.70
68719;DHT22;55696;52.138;5.444;2022-11-15T03:00:14;12.30;77.80
68719;DHT22;55696;52.138;5.444;2022-11-15T03:09:09;12.40;77.80
68719;DHT22;55696;52.138;5.444;2022-11-15T03:12:01;12.50;77.60
68719;DHT22;55696;52.138;5.444;2022-11-15T03:15:04;12.30;78.70
68719;DHT22;55696;52.138;5.444;2022-11-15T03:18:21;12.50;77.70
68719;DHT22;55696;52.138;5.444;2022-11-15T03:21:07;12.40;78.00
68719;DHT22;55696;52.138;5.444;2022-11-15T03:23:55;12.60;77.50
68719;DHT22;55696;52.138;5.444;2022-11-15T03:26:44;12.60;77.40
68719;DHT22;55696;52.138;5.444;2022-11-15T03:29:33;12.60;77.20
68719;DHT22;55696;52.138;5.444;2022-11-15T03:32:25;12.60;77.30
68719;DHT22;55696;52.138;5.444;2022-11-15T03:35:35;12.60;77.70
68719;DHT22;55696;52.138;5.444;2022-11-15T03:38:26;12.60;78.50
68719;DHT22;55696;52.138;5.444;2022-11-15T03:41:22;12.70;78.20
68719;DHT22;55696;52.138;5.444;2022-11-15T03:47:13;12.80;77.80
68719;DHT22;55696;52.138;5.444;2022-11-15T03:50:10;12.80;78.90
68719;DHT22;55696;52.138;5.444;2022-11-15T03:52:57;12.80;78.50
68719;DHT22;55696;52.138;5.444;2022-11-15T03:55:43;13.10;77.20
68719;DHT22;55696;52.138;5.444;2022-11-15T03:58:29;12.90;76.60
68719;DHT22;55696;52.138;5.444;2022-11-15T04:01:14;12.70;76.40
68719;DHT22;55696;52.138;5.444;2022-11-15T04:03:59;13.00;76.50
68719;DHT22;55696;52.138;5.444;2022-11-15T04:06:45;13.00;76.60
68719;DHT22;55696;52.138;5.444;2022-11-15T04:09:30;13.00;76.70
68719;DHT22;55696;52.138;5.444;2022-11-15T04:12:15;13.00;76.90
68719;DHT22;55696;52.138;5.444;2022-11-15T04:15:17;13.10;76.60
68719;DHT22;55696;52.138;5.444;2022-11-15T04:18:03;13.00;77.70
68719;DHT22;55696;52.138;5.444;2022-11-15T04:20:49;14.10;77.10
68719;DHT22;55696;52.138;5.444;2022-11-15T04:24:12;13.20;76.10
68719;DHT22;55696;52.138;5.444;2022-11-15T04:26:57;13.20;76.50
68719;DHT22;55696;52.138;5.444;2022-11-15T04:29:43;13.20;76.60
68719;DHT22;55696;52.138;5.444;2022-11-15T04:32:28;13.10;76.60
68719;DHT22;55696;52.138;5.444;2022-11-15T04:35:13;13.20;76.60
68719;DHT22;55696;52.138;5.444;2022-11-15T04:37:59;13.20;76.70
68719;DHT22;55696;52.138;5.444;2022-11-15T04:40:44;13.30;77.10
68719;DHT22;55696;52.138;5.444;2022-11-15T04:43:30;13.30;76.40
68719;DHT22;55696;52.138;5.444;2022-11-15T04:46:16;13.40;76.50
68719;DHT22;55696;52.138;5.444;2022-11-15T04:49:01;13.30;76.80
68719;DHT22;55696;52.138;5.444;2022-11-15T04:51:47;13.40;76.70
68719;DHT22;55696;52.138;5.444;2022-11-15T04:54:32;13.30;76.80
68719;DHT22;55696;52.138;5.444;2022-11-15T04:57:18;13.30;76.60
68719;DHT22;55696;52.138;5.444;2022-11-15T05:00:09;13.30;76.90
68719;DHT22;55696;52.138;5.444;2022-11-15T05:02:55;13.50;79.40
68719;DHT22;55696;52.138;5.444;2022-11-15T05:06:00;13.40;77.10
68719;DHT22;55696;52.138;5.444;2022-11-15T05:08:46;13.30;77.00
68719;DHT22;55696;52.138;5.444;2022-11-15T05:11:31;13.40;77.20
68719;DHT22;55696;52.138;5.444;2022-11-15T05:14:16;13.40;77.00
68719;DHT22;55696;52.138;5.444;2022-11-15T05:17:02;13.40;77.00
68719;DHT22;55696;52.138;5.444;2022-11-15T05:19:47;13.40;77.00
68719;DHT22;55696;52.138;5.444;2022-11-15T05:22:32;13.50;77.00
68719;DHT22;55696;52.138;5.444;2022-11-15T05:25:18;13.50;77.00
68719;DHT22;55696;52.138;5.444;2022-11-15T05:28:03;13.50;77.20
68719;DHT22;55696;52.138;5.444;2022-11-15T05:30:48;13.40;77.60
68719;DHT22;55696;52.138;5.444;2022-11-15T05:33:35;13.40;77.30
68719;DHT22;55696;52.138;5.444;2022-11-15T05:36:43;13.40;78.40
68719;DHT22;55696;52.138;5.444;2022-11-15T05:39:30;13.50;78.80
68719;DHT22;55696;52.138;5.444;2022-11-15T05:42:16;13.50;77.10
68719;DHT22;55696;52.138;5.444;2022-11-15T05:45:04;13.50;77.40
68719;DHT22;55696;52.138;5.444;2022-11-15T05:47:52;13.60;78.70
68719;DHT22;55696;52.138;5.444;2022-11-15T05:50:40;13.50;78.10
68719;DHT22;55696;52.138;5.444;2022-11-15T05:53:26;13.50;78.20
68719;DHT22;55696;52.138;5.444;2022-11-15T05:56:12;13.70;77.40
68719;DHT22;55696;52.138;5.444;2022-11-15T05:58:59;13.60;77.10
68719;DHT22;55696;52.138;5.444;2022-11-15T06:01:44;13.70;77.20
68719;DHT22;55696;52.138;5.444;2022-11-15T06:04:30;13.70;77.20
68719;DHT22;55696;52.138;5.444;2022-11-15T06:07:15;13.70;77.00
68719;DHT22;55696;52.138;5.444;2022-11-15T06:10:01;13.80;77.20
68719;DHT22;55696;52.138;5.444;2022-11-15T06:12:46;13.90;77.30
68719;DHT22;55696;52.138;5.444;2022-11-15T06:15:32;13.90;76.90
68719;DHT22;55696;52.138;5.444;2022-11-15T06:18:18;13.90;77.20
68719;DHT22;55696;52.138;5.444;2022-11-15T06:21:04;13.90;76.80
68719;DHT22;55696;52.138;5.444;2022-11-15T06:23:49;13.90;77.00
68719;DHT22;55696;52.138;5.444;2022-11-15T06:26:34;13.90;77.40
68719;DHT22;55696;52.138;5.444;2022-11-15T06:29:20;13.90;77.10
68719;DHT22;55696;52.138;5.444;2022-11-15T06:32:05;13.90;76.90
68719;DHT22;55696;52.138;5.444;2022-11-15T06:34:51;13.90;76.80
68719;DHT22;55696;52.138;5.444;2022-11-15T06:37:36;13.90;76.80
68719;DHT22;55696;52.138;5.444;2022-11-15T06:40:21;14.00;77.10
68719;DHT22;55696;52.138;5.444;2022-11-15T06:43:07;14.00;77.20
68719;DHT22;55696;52.138;5.444;2022-11-15T06:45:52;14.00;77.00
68719;DHT22;55696;52.138;5.444;2022-11-15T06:48:38;14.00;77.90
68719;DHT22;55696;52.138;5.444;2022-11-15T06:51:23;14.00;76.80
68719;DHT22;55696;52.138;5.444;2022-11-15T06:54:08;14.00;76.80
68719;DHT22;55696;52.138;5.444;2022-11-15T06:56:54;14.00;76.70
68719;DHT22;55696;52.138;5.444;2022-11-15T06:59:39;14.00;76.90
68719;DHT22;55696;52.138;5.444;2022-11-15T07:02:25;13.90;76.90
68719;DHT22;55696;52.138;5.444;2022-11-15T07:05:11;14.00;77.60
68719;DHT22;55696;52.138;5.444;2022-11-15T07:07:57;14.00;77.30
68719;DHT22;55696;52.138;5.444;2022-11-15T07:10:43;14.00;77.60
68719;DHT22;55696;52.138;5.444;2022-11-15T07:13:30;13.80;76.50
68719;DHT22;55696;52.138;5.444;2022-11-15T07:16:19;14.00;77.50
68719;DHT22;55696;52.138;5.444;2022-11-15T07:19:05;14.00;77.10
68719;DHT22;55696;52.138;5.444;2022-11-15T07:21:50;14.10;77.10
68719;DHT22;55696;52.138;5.444;2022-11-15T07:24:35;14.10;77.10
68719;DHT22;55696;52.138;5.444;2022-11-15T07:27:21;14.10;77.00
68719;DHT22;55696;52.138;5.444;2022-11-15T07:30:06;14.10;76.90
68719;DHT22;55696;52.138;5.444;2022-11-15T07:32:57;14.20;77.40
68719;DHT22;55696;52.138;5.444;2022-11-15T07:35:42;14.00;78.40
68719;DHT22;55696;52.138;5.444;2022-11-15T07:38:28;14.20;77.10
68719;DHT22;55696;52.138;5.444;2022-11-15T07:41:13;14.20;77.40
68719;DHT22;55696;52.138;5.444;2022-11-15T07:43:59;14.20;76.90
68719;DHT22;55696;52.138;5.444;2022-11-15T07:46:45;14.10;76.60
68719;DHT22;55696;52.138;5.444;2022-11-15T07:49:30;14.20;76.90
68719;DHT22;55696;52.138;5.444;2022-11-15T07:52:15;14.20;76.80
68719;DHT22;55696;52.138;5.444;2022-11-15T07:55:01;14.20;76.80
68719;DHT22;55696;52.138;5.444;2022-11-15T07:57:46;14.20;76.60
68719;DHT22;55696;52.138;5.444;2022-11-15T08:00:32;14.10;76.60
68719;DHT22;55696;52.138;5.444;2022-11-15T08:03:17;14.10;76.60
68719;DHT22;55696;52.138;5.444;2022-11-15T08:06:03;14.30;76.50
68719;DHT22;55696;52.138;5.444;2022-11-15T08:08:48;14.30;76.70
68719;DHT22;55696;52.138;5.444;2022-11-15T08:11:34;14.20;76.50
68719;DHT22;55696;52.138;5.444;2022-11-15T08:14:19;14.30;76.50
68719;DHT22;55696;52.138;5.444;2022-11-15T08:17:07;15.20;76.60
68719;DHT22;55696;52.138;5.444;2022-11-15T08:19:52;14.80;76.20
68719;DHT22;55696;52.138;5.444;2022-11-15T08:22:37;14.40;76.00
68719;DHT22;55696;52.138;5.444;2022-11-15T08:25:24;14.40;76.00
68719;DHT22;55696;52.138;5.444;2022-11-15T08:28:12;14.40;76.70
68719;DHT22;55696;52.138;5.444;2022-11-15T08:30:58;14.30;76.10
68719;DHT22;55696;52.138;5.444;2022-11-15T08:33:44;16.20;77.10
68719;DHT22;55696;52.138;5.444;2022-11-15T08:36:29;13.80;76.30
68719;DHT22;55696;52.138;5.444;2022-11-15T08:39:27;14.30;75.70
68719;DHT22;55696;52.138;5.444;2022-11-15T08:42:12;14.40;75.70
68719;DHT22;55696;52.138;5.444;2022-11-15T08:45:04;14.40;75.60
68719;DHT22;55696;52.138;5.444;2022-11-15T08:47:50;14.60;76.40
68719;DHT22;55696;52.138;5.444;2022-11-15T08:50:39;14.50;75.80
68719;DHT22;55696;52.138;5.444;2022-11-15T08:53:24;14.30;76.20
68719;DHT22;55696;52.138;5.444;2022-11-15T08:56:11;14.50;76.10
68719;DHT22;55696;52.138;5.444;2022-11-15T08:58:56;14.60;76.90
68719;DHT22;55696;52.138;5.444;2022-11-15T09:01:42;14.60;75.90
68719;DHT22;55696;52.138;5.444;2022-11-15T09:04:27;14.60;75.70
68719;DHT22;55696;52.138;5.444;2022-11-15T09:07:13;14.70;75.70
68719;DHT22;55696;52.138;5.444;2022-11-15T09:09:59;14.70;75.90
68719;DHT22;55696;52.138;5.444;2022-11-15T09:12:44;14.80;74.60
68719;DHT22;55696;52.138;5.444;2022-11-15T09:15:33;14.60;74.40
68719;DHT22;55696;52.138;5.444;2022-11-15T09:18:18;15.10;74.70
68719;DHT22;55696;52.138;5.444;2022-11-15T09:21:07;15.70;74.40
68719;DHT22;55696;52.138;5.444;2022-11-15T09:23:52;15.10;74.20
68719;DHT22;55696;52.138;5.444;2022-11-15T09:26:38;15.10;73.90
68719;DHT22;55696;52.138;5.444;2022-11-15T09:29:23;15.10;73.30
68719;DHT22;55696;52.138;5.444;2022-11-15T09:32:09;15.00;73.10
68719;DHT22;55696;52.138;5.444;2022-11-15T09:34:54;15.20;73.50
68719;DHT22;55696;52.138;5.444;2022-11-15T09:37:39;15.10;72.90
68719;DHT22;55696;52.138;5.444;2022-11-15T09:40:25;15.30;72.90
68719;DHT22;55696;52.138;5.444;2022-11-15T09:49:02;15.00;74.00
68719;DHT22;55696;52.138;5.444;2022-11-15T09:51:48;14.80;72.30
68719;DHT22;55696;52.138;5.444;2022-11-15T09:54:29;16.10;74.20
68719;DHT22;55696;52.138;5.444;2022-11-15T09:57:45;15.10;73.20
68719;DHT22;55696;52.138;5.444;2022-11-15T10:03:25;15.20;72.60
68719;DHT22;55696;52.138;5.444;2022-11-15T10:05:56;15.40;72.20
68719;DHT22;55696;52.138;5.444;2022-11-15T10:08:31;15.30;71.80
68719;DHT22;55696;52.138;5.444;2022-11-15T10:11:05;15.30;72.00
68719;DHT22;55696;52.138;5.444;2022-11-15T10:13:56;15.50;71.00
68719;DHT22;55696;52.138;5.444;2022-11-15T10:22:26;15.50;71.40
68719;DHT22;55696;52.138;5.444;2022-11-15T10:25:23;15.60;71.30
68719;DHT22;55696;52.138;5.444;2022-11-15T10:27:54;15.60;70.80
68719;DHT22;55696;52.138;5.444;2022-11-15T10:30:21;15.60;70.30
68719;DHT22;55696;52.138;5.444;2022-11-15T10:32:49;15.70;68.80
68719;DHT22;55696;52.138;5.444;2022-11-15T10:35:28;15.80;68.30
68719;DHT22;55696;52.138;5.444;2022-11-15T10:38:08;15.80;68.80
68719;DHT22;55696;52.138;5.444;2022-11-15T10:40:37;15.90;69.10
68719;DHT22;55696;52.138;5.444;2022-11-15T10:45:37;15.80;67.90
68719;DHT22;55696;52.138;5.444;2022-11-15T10:50:45;17.60;69.90
68719;DHT22;55696;52.138;5.444;2022-11-15T10:53:29;15.80;66.90
68719;DHT22;55696;52.138;5.444;2022-11-15T10:56:02;15.80;68.20
68719;DHT22;55696;52.138;5.444;2022-11-15T10:58:37;15.60;67.90
68719;DHT22;55696;52.138;5.444;2022-11-15T11:01:33;15.80;67.40
68719;DHT22;55696;52.138;5.444;2022-11-15T11:06:29;15.80;65.70
68719;DHT22;55696;52.138;5.444;2022-11-15T11:08:59;15.80;66.40
68719;DHT22;55696;52.138;5.444;2022-11-15T11:11:45;15.70;66.60
68719;DHT22;55696;52.138;5.444;2022-11-15T11:14:17;15.70;67.50
68719;DHT22;55696;52.138;5.444;2022-11-15T11:16:54;15.30;65.70
68719;DHT22;55696;52.138;5.444;2022-11-15T11:22:32;15.80;66.40
68719;DHT22;55696;52.138;5.444;2022-11-15T11:30:41;17.00;68.00
68719;DHT22;55696;52.138;5.444;2022-11-15T11:33:33;16.00;66.40
68719;DHT22;55696;52.138;5.444;2022-11-15T11:36:22;15.90;66.10
68719;DHT22;55696;52.138;5.444;2022-11-15T11:38:58;15.80;65.50
68719;DHT22;55696;52.138;5.444;2022-11-15T11:41:37;15.60;66.20
68719;DHT22;55696;52.138;5.444;2022-11-15T11:44:28;15.70;66.20
68719;DHT22;55696;52.138;5.444;2022-11-15T11:47:11;15.80;65.80
68719;DHT22;55696;52.138;5.444;2022-11-15T11:49:55;15.70;66.20
68719;DHT22;55696;52.138;5.444;2022-11-15T11:52:35;15.80;65.70
68719;DHT22;55696;52.138;5.444;2022-11-15T11:55:14;15.60;66.00
68719;DHT22;55696;52.138;5.444;2022-11-15T12:00:32;16.10;63.20
68719;DHT22;55696;52.138;5.444;2022-11-15T12:03:13;15.90;65.40
68719;DHT22;55696;52.138;5.444;2022-11-15T12:05:52;16.30;64.40
68719;DHT22;55696;52.138;5.444;2022-11-15T12:11:28;16.50;63.20
68719;DHT22;55696;52.138;5.444;2022-11-15T12:14:01;16.50;63.30
68719;DHT22;55696;52.138;5.444;2022-11-15T12:16:32;17.60;63.40
68719;DHT22;55696;52.138;5.444;2022-11-15T12:19:01;16.40;62.50
68719;DHT22;55696;52.138;5.444;2022-11-15T12:21:43;16.20;62.00
68719;DHT22;55696;52.138;5.444;2022-11-15T12:26:56;16.00;62.60
68719;DHT22;55696;52.138;5.444;2022-11-15T12:29:37;16.40;61.70
68719;DHT22;55696;52.138;5.444;2022-11-15T12:32:14;17.20;62.90
68719;DHT22;55696;52.138;5.444;2022-11-15T12:34:45;16.60;61.20
68719;DHT22;55696;52.138;5.444;2022-11-15T12:40:32;16.50;61.60
68719;DHT22;55696;52.138;5.444;2022-11-15T12:43:01;16.50;61.00
68719;DHT22;55696;52.138;5.444;2022-11-15T12:45:38;16.50;59.20
68719;DHT22;55696;52.138;5.444;2022-11-15T12:50:53;15.80;60.50
68719;DHT22;55696;52.138;5.444;2022-11-15T12:58:47;16.70;60.30
68719;DHT22;55696;52.138;5.444;2022-11-15T13:12:47;16.50;60.40
68719;DHT22;55696;52.138;5.444;2022-11-15T13:17:56;17.90;61.30
68719;DHT22;55696;52.138;5.444;2022-11-15T13:20:30;17.00;60.50
68719;DHT22;55696;52.138;5.444;2022-11-15T13:23:10;16.60;59.30
68719;DHT22;55696;52.138;5.444;2022-11-15T13:33:16;16.30;60.30
68719;DHT22;55696;52.138;5.444;2022-11-15T13:35:47;16.10;59.60
68719;DHT22;55696;52.138;5.444;2022-11-15T13:38:35;15.90;60.00
68719;DHT22;55696;52.138;5.444;2022-11-15T13:42:04;17.60;61.70
68719;DHT22;55696;52.138;5.444;2022-11-15T13:44:20;16.20;60.80
68719;DHT22;55696;52.138;5.444;2022-11-15T13:46:47;16.10;61.10
68719;DHT22;55696;52.138;5.444;2022-11-15T13:49:14;15.60;59.40
68719;DHT22;55696;52.138;5.444;2022-11-15T13:51:51;15.80;60.10
68719;DHT22;55696;52.138;5.444;2022-11-15T13:57:05;15.80;61.10
68719;DHT22;55696;52.138;5.444;2022-11-15T13:59:43;16.80;61.80
68719;DHT22;55696;52.138;5.444;2022-11-15T14:02:25;15.70;61.20
68719;DHT22;55696;52.138;5.444;2022-11-15T14:04:56;15.60;61.90
68719;DHT22;55696;52.138;5.444;2022-11-15T14:07:26;15.60;60.90
68719;DHT22;55696;52.138;5.444;2022-11-15T14:09:54;15.50;61.30
68719;DHT22;55696;52.138;5.444;2022-11-15T14:14:51;15.60;59.40
68719;DHT22;55696;52.138;5.444;2022-11-15T14:17:37;15.60;60.10
68719;DHT22;55696;52.138;5.444;2022-11-15T14:20:30;15.50;62.00
68719;DHT22;55696;52.138;5.444;2022-11-15T14:25:35;15.50;60.90
68719;DHT22;55696;52.138;5.444;2022-11-15T14:30:51;15.40;61.70
68719;DHT22;55696;52.138;5.444;2022-11-15T14:35:51;15.40;61.00
68719;DHT22;55696;52.138;5.444;2022-11-15T14:38:18;15.30;60.90
68719;DHT22;55696;52.138;5.444;2022-11-15T14:40:45;15.30;60.10
68719;DHT22;55696;52.138;5.444;2022-11-15T14:43:12;15.30;60.00
68719;DHT22;55696;52.138;5.444;2022-11-15T14:45:39;15.30;60.00
68719;DHT22;55696;52.138;5.444;2022-11-15T14:48:06;15.40;60.50
68719;DHT22;55696;52.138;5.444;2022-11-15T14:50:33;15.40;60.10
68719;DHT22;55696;52.138;5.444;2022-11-15T14:53:01;15.40;60.90
68719;DHT22;55696;52.138;5.444;2022-11-15T14:55:30;15.50;59.90
68719;DHT22;55696;52.138;5.444;2022-11-15T14:57:59;15.50;61.10
68719;DHT22;55696;52.138;5.444;2022-11-15T15:00:25;15.50;60.20
68719;DHT22;55696;52.138;5.444;2022-11-15T15:02:59;15.50;59.80
68719;DHT22;55696;52.138;5.444;2022-11-15T15:07:57;15.50;61.10
68719;DHT22;55696;52.138;5.444;2022-11-15T15:10:25;15.40;59.60
68719;DHT22;55696;52.138;5.444;2022-11-15T15:13:24;15.40;60.10
68719;DHT22;55696;52.138;5.444;2022-11-15T15:15:52;15.50;61.10
68719;DHT22;55696;52.138;5.444;2022-11-15T15:18:19;15.40;60.00
68719;DHT22;55696;52.138;5.444;2022-11-15T15:20:53;15.40;59.40
68719;DHT22;55696;52.138;5.444;2022-11-15T15:23:20;15.50;60.80
68719;DHT22;55696;52.138;5.444;2022-11-15T15:25:48;15.30;59.10
68719;DHT22;55696;52.138;5.444;2022-11-15T15:28:15;15.30;59.90
68719;DHT22;55696;52.138;5.444;2022-11-15T15:30:42;15.40;59.20
68719;DHT22;55696;52.138;5.444;2022-11-15T15:33:08;15.40;59.30
68719;DHT22;55696;52.138;5.444;2022-11-15T15:35:35;15.30;59.30
68719;DHT22;55696;52.138;5.444;2022-11-15T15:38:02;15.30;59.20
68719;DHT22;55696;52.138;5.444;2022-11-15T15:40:31;15.30;59.40
68719;DHT22;55696;52.138;5.444;2022-11-15T15:42:59;15.40;60.40
68719;DHT22;55696;52.138;5.444;2022-11-15T15:45:26;15.30;59.20
68719;DHT22;55696;52.138;5.444;2022-11-15T15:47:54;15.30;59.90
68719;DHT22;55696;52.138;5.444;2022-11-15T15:50:29;15.30;59.60
68719;DHT22;55696;52.138;5.444;2022-11-15T15:52:58;15.30;62.00
68719;DHT22;55696;52.138;5.444;2022-11-15T15:55:26;15.40;60.70
68719;DHT22;55696;52.138;5.444;2022-11-15T15:57:53;15.30;59.70
68719;DHT22;55696;52.138;5.444;2022-11-15T16:00:21;15.30;59.50
68719;DHT22;55696;52.138;5.444;2022-11-15T16:02:49;15.30;59.80
68719;DHT22;55696;52.138;5.444;2022-11-15T16:05:16;15.30;59.20
68719;DHT22;55696;52.138;5.444;2022-11-15T16:07:44;15.30;59.00
68719;DHT22;55696;52.138;5.444;2022-11-15T16:10:32;15.20;59.10
68719;DHT22;55696;52.138;5.444;2022-11-15T16:13:00;15.40;60.90
68719;DHT22;55696;52.138;5.444;2022-11-15T16:15:29;15.30;59.10
68719;DHT22;55696;52.138;5.444;2022-11-15T16:17:58;15.20;60.50
68719;DHT22;55696;52.138;5.444;2022-11-15T16:20:42;15.30;59.90
68719;DHT22;55696;52.138;5.444;2022-11-15T16:23:13;15.30;60.40
68719;DHT22;55696;52.138;5.444;2022-11-15T16:25:44;15.30;59.90
68719;DHT22;55696;52.138;5.444;2022-11-15T16:30:46;15.30;60.00
68719;DHT22;55696;52.138;5.444;2022-11-15T16:33:19;15.30;58.70
68719;DHT22;55696;52.138;5.444;2022-11-15T16:35:46;15.10;58.50
68719;DHT22;55696;52.138;5.444;2022-11-15T16:38:15;15.30;58.70
68719;DHT22;55696;52.138;5.444;2022-11-15T16:40:41;15.30;59.70
68719;DHT22;55696;52.138;5.444;2022-11-15T16:43:09;15.30;58.80
68719;DHT22;55696;52.138;5.444;2022-11-15T16:45:36;15.30;58.80
68719;DHT22;55696;52.138;5.444;2022-11-15T16:48:03;15.40;59.30
68719;DHT22;55696;52.138;5.444;2022-11-15T16:50:32;15.40;59.70
68719;DHT22;55696;52.138;5.444;2022-11-15T16:53:05;15.40;60.10
68719;DHT22;55696;52.138;5.444;2022-11-15T16:55:32;15.40;59.20
68719;DHT22;55696;52.138;5.444;2022-11-15T16:57:59;15.40;59.20
68719;DHT22;55696;52.138;5.444;2022-11-15T17:00:27;15.40;59.50
68719;DHT22;55696;52.138;5.444;2022-11-15T17:02:54;15.30;59.60
68719;DHT22;55696;52.138;5.444;2022-11-15T17:05:22;15.40;61.00
68719;DHT22;55696;52.138;5.444;2022-11-15T17:07:50;15.40;61.00
68719;DHT22;55696;52.138;5.444;2022-11-15T17:10:21;16.20;61.70
68719;DHT22;55696;52.138;5.444;2022-11-15T17:12:49;15.40;61.40
68719;DHT22;55696;52.138;5.444;2022-11-15T17:15:16;15.30;61.10
68719;DHT22;55696;52.138;5.444;2022-11-15T17:17:44;15.40;61.30
68719;DHT22;55696;52.138;5.444;2022-11-15T17:20:17;15.30;61.80
68719;DHT22;55696;52.138;5.444;2022-11-15T17:22:44;15.20;62.50
68719;DHT22;55696;52.138;5.444;2022-11-15T17:25:13;15.30;61.90
68719;DHT22;55696;52.138;5.444;2022-11-15T17:27:40;15.30;62.60
68719;DHT22;55696;52.138;5.444;2022-11-15T17:30:07;15.30;62.60
68719;DHT22;55696;52.138;5.444;2022-11-15T17:32:35;15.30;63.40
68719;DHT22;55696;52.138;5.444;2022-11-15T17:35:03;15.20;64.10
68719;DHT22;55696;52.138;5.444;2022-11-15T17:37:40;15.20;65.60
68719;DHT22;55696;52.138;5.444;2022-11-15T17:40:08;15.10;64.40
68719;DHT22;55696;52.138;5.444;2022-11-15T17:42:35;15.10;64.90
68719;DHT22;55696;52.138;5.444;2022-11-15T17:45:01;15.00;64.80
68719;DHT22;55696;52.138;5.444;2022-11-15T17:47:36;15.00;65.00
68719;DHT22;55696;52.138;5.444;2022-11-15T17:50:03;15.00;65.70
68719;DHT22;55696;52.138;5.444;2022-11-15T17:52:30;15.00;65.80
68719;DHT22;55696;52.138;5.444;2022-11-15T17:54:57;14.90;65.70
68719;DHT22;55696;52.138;5.444;2022-11-15T17:57:23;15.00;66.00
68719;DHT22;55696;52.138;5.444;2022-11-15T17:59:50;14.90;66.10
68719;DHT22;55696;52.138;5.444;2022-11-15T18:02:16;14.90;66.30
68719;DHT22;55696;52.138;5.444;2022-11-15T18:04:43;14.90;66.70
68719;DHT22;55696;52.138;5.444;2022-11-15T18:07:10;15.40;67.00
68719;DHT22;55696;52.138;5.444;2022-11-15T18:09:38;15.70;67.30
68719;DHT22;55696;52.138;5.444;2022-11-15T18:12:08;15.00;67.30
68719;DHT22;55696;52.138;5.444;2022-11-15T18:14:35;15.20;67.50
68719;DHT22;55696;52.138;5.444;2022-11-15T18:17:01;14.90;67.80
68719;DHT22;55696;52.138;5.444;2022-11-15T18:19:28;14.90;67.70
68719;DHT22;55696;52.138;5.444;2022-11-15T18:21:55;13.70;67.40
68719;DHT22;55696;52.138;5.444;2022-11-15T18:24:23;15.70;68.60
68719;DHT22;55696;52.138;5.444;2022-11-15T18:26:50;14.90;68.50
68719;DHT22;55696;52.138;5.444;2022-11-15T18:29:16;14.90;68.50
68719;DHT22;55696;52.138;5.444;2022-11-15T18:31:43;14.90;68.60
68719;DHT22;55696;52.138;5.444;2022-11-15T18:34:13;14.90;68.70
68719;DHT22;55696;52.138;5.444;2022-11-15T18:36:40;14.90;68.90
68719;DHT22;55696;52.138;5.444;2022-11-15T18:39:09;14.90;68.80
68719;DHT22;55696;52.138;5.444;2022-11-15T18:41:42;14.90;70.10
68719;DHT22;55696;52.138;5.444;2022-11-15T18:44:09;14.90;70.20
68719;DHT22;55696;52.138;5.444;2022-11-15T18:46:36;14.90;69.40